createdAt,value
2023-04-30T00:02:06.484Z,2.27
2023-04-30T00:04:34.883Z,0.70
2023-04-30T00:07:03.648Z,1.33
2023-04-30T00:09:31.965Z,1.37
2023-04-30T00:12:01.763Z,1.37
2023-04-30T00:14:30.199Z,1.00
2023-04-30T00:16:58.542Z,2.27
2023-04-30T00:19:26.940Z,0.80
2023-04-30T00:21:55.385Z,1.47
2023-04-30T00:24:23.751Z,0.90
2023-04-30T00:26:52.147Z,1.67
2023-04-30T00:29:21.871Z,1.87
2023-04-30T00:31:50.319Z,1.17
2023-04-30T00:34:18.757Z,1.30
2023-04-30T00:36:47.155Z,1.20
2023-04-30T00:39:16.645Z,1.00
2023-04-30T00:41:45.122Z,0.80
2023-04-30T00:44:13.458Z,1.73
2023-04-30T00:46:43.147Z,1.20
2023-04-30T00:49:11.487Z,2.37
2023-04-30T00:51:42.715Z,2.50
2023-04-30T00:54:11.250Z,2.20
2023-04-30T00:56:39.859Z,0.90
2023-04-30T00:59:08.265Z,1.10
2023-04-30T01:01:36.727Z,0.70
2023-04-30T01:04:06.670Z,1.20
2023-04-30T01:06:35.645Z,1.40
2023-04-30T01:09:04.308Z,0.80
2023-04-30T01:11:40.888Z,0.70
2023-04-30T01:14:12.283Z,0.70
2023-04-30T01:16:43.959Z,0.70
2023-04-30T01:19:22.389Z,1.27
2023-04-30T01:21:51.099Z,1.03
2023-04-30T01:24:34.328Z,1.27
2023-04-30T01:27:09.146Z,0.70
2023-04-30T01:29:39.812Z,2.47
2023-04-30T01:32:08.251Z,1.13
2023-04-30T01:34:36.737Z,0.80
2023-04-30T01:37:11.045Z,0.70
2023-04-30T01:39:50.713Z,1.13
2023-04-30T01:42:23.099Z,0.77
2023-04-30T01:44:59.064Z,0.80
2023-04-30T01:47:32.233Z,0.77
2023-04-30T01:50:05.033Z,1.27
2023-04-30T01:52:34.344Z,0.77
2023-04-30T01:55:07.166Z,1.00
2023-04-30T01:57:38.708Z,2.50
2023-04-30T02:00:12.244Z,2.83
2023-04-30T02:02:41.056Z,1.13
2023-04-30T02:05:09.701Z,0.73
2023-04-30T02:07:41.881Z,1.33
2023-04-30T02:10:10.876Z,1.23
2023-04-30T02:12:39.441Z,0.60
2023-04-30T02:15:10.485Z,0.87
2023-04-30T02:17:38.952Z,1.10
2023-04-30T02:20:08.117Z,0.87
2023-04-30T02:22:36.676Z,0.70
2023-04-30T02:25:05.212Z,0.70
2023-04-30T02:27:34.191Z,0.80
2023-04-30T02:30:03.246Z,0.70
2023-04-30T02:32:33.178Z,1.00
2023-04-30T02:35:01.864Z,3.13
2023-04-30T02:37:30.345Z,1.17
2023-04-30T02:39:58.840Z,0.70
2023-04-30T02:42:27.290Z,2.10
2023-04-30T02:44:55.572Z,7.87
2023-04-30T02:47:23.992Z,9.47
2023-04-30T02:49:53.892Z,1.50
2023-04-30T02:52:22.385Z,0.80
2023-04-30T02:54:50.936Z,1.23
2023-04-30T02:57:19.430Z,0.83
2023-04-30T02:59:47.855Z,0.73
2023-04-30T03:02:16.728Z,0.90
2023-04-30T03:04:45.139Z,1.10
2023-04-30T03:07:14.884Z,0.80
2023-04-30T03:09:43.496Z,0.70
2023-04-30T03:12:11.856Z,1.77
2023-04-30T03:14:40.124Z,4.40
2023-04-30T03:17:08.530Z,7.33
2023-04-30T03:19:37.041Z,6.20
2023-04-30T03:22:05.502Z,4.80
2023-04-30T03:24:35.199Z,1.67
2023-04-30T03:27:03.707Z,0.87
2023-04-30T03:29:32.187Z,5.17
2023-04-30T03:32:00.595Z,11.50
2023-04-30T03:34:29.138Z,4.20
2023-04-30T03:36:57.653Z,1.60
2023-04-30T03:39:26.204Z,1.70
2023-04-30T03:41:56.008Z,1.10
2023-04-30T03:44:24.486Z,3.23
2023-04-30T03:46:52.891Z,3.43
2023-04-30T03:49:21.287Z,0.80
2023-04-30T03:51:49.687Z,0.70
2023-04-30T03:54:18.094Z,0.87
2023-04-30T03:56:46.553Z,0.90
2023-04-30T03:59:16.277Z,0.80
2023-04-30T04:01:44.822Z,1.63
2023-04-30T04:04:13.424Z,0.80
2023-04-30T04:06:41.987Z,0.70
2023-04-30T04:09:10.523Z,0.70
2023-04-30T04:11:38.914Z,0.87
2023-04-30T04:14:07.262Z,0.93
2023-04-30T04:16:37.119Z,2.67
2023-04-30T04:19:06.739Z,0.70
2023-04-30T04:21:35.107Z,0.90
2023-04-30T04:24:08.311Z,1.33
2023-04-30T04:26:36.679Z,0.80
2023-04-30T04:29:05.181Z,1.03
2023-04-30T04:31:33.544Z,0.73
2023-04-30T04:34:05.826Z,0.87
2023-04-30T04:36:34.519Z,1.63
2023-04-30T04:39:03.124Z,0.70
2023-04-30T04:41:32.698Z,0.70
2023-04-30T04:44:01.917Z,0.70
2023-04-30T04:46:31.631Z,1.67
2023-04-30T04:49:00.210Z,0.93
2023-04-30T04:51:30.038Z,3.03
2023-04-30T04:53:58.403Z,2.20
2023-04-30T04:56:26.795Z,1.40
2023-04-30T04:58:55.157Z,0.70
2023-04-30T05:01:23.495Z,4.43
2023-04-30T05:03:53.912Z,1.20
2023-04-30T05:06:22.475Z,2.60
2023-04-30T05:08:52.176Z,0.80
2023-04-30T05:11:21.927Z,8.23
2023-04-30T05:13:50.346Z,7.53
2023-04-30T05:16:18.734Z,2.53
2023-04-30T05:18:47.152Z,0.70
2023-04-30T05:21:15.619Z,3.20
2023-04-30T05:23:45.778Z,1.17
2023-04-30T05:26:15.696Z,1.40
2023-04-30T05:28:44.165Z,2.43
2023-04-30T05:31:12.616Z,0.83
2023-04-30T05:33:41.115Z,1.90
2023-04-30T05:36:09.581Z,2.50
2023-04-30T05:38:38.036Z,0.80
2023-04-30T05:41:06.738Z,2.27
2023-04-30T05:43:36.463Z,1.27
2023-04-30T05:46:04.916Z,0.90
2023-04-30T05:48:33.386Z,2.47
2023-04-30T05:51:01.961Z,1.97
2023-04-30T05:53:30.337Z,2.53
2023-04-30T05:55:58.795Z,2.20
2023-04-30T05:58:27.184Z,2.30
2023-04-30T06:00:57.059Z,2.20
2023-04-30T06:03:25.567Z,2.27
2023-04-30T06:05:54.039Z,0.90
2023-04-30T06:08:22.542Z,3.23
2023-04-30T06:10:51.064Z,2.83
2023-04-30T06:13:19.625Z,3.27
2023-04-30T06:15:48.078Z,2.23
2023-04-30T06:18:17.763Z,2.23
2023-04-30T06:20:46.441Z,4.87
2023-04-30T06:23:14.773Z,3.63
2023-04-30T06:25:43.220Z,5.77
2023-04-30T06:28:11.698Z,2.10
2023-04-30T06:30:40.058Z,4.17
2023-04-30T06:33:08.643Z,4.27
2023-04-30T06:35:38.544Z,5.00
2023-04-30T06:38:07.044Z,3.73
2023-04-30T06:40:35.494Z,4.57
2023-04-30T06:43:03.902Z,6.97
2023-04-30T06:45:32.279Z,4.27
2023-04-30T06:48:00.823Z,5.27
2023-04-30T06:50:29.757Z,4.80
2023-04-30T06:52:59.500Z,4.57
2023-04-30T06:55:28.143Z,2.90
2023-04-30T06:57:57.920Z,5.43
2023-04-30T07:00:26.541Z,6.47
2023-04-30T07:02:55.226Z,5.93
2023-04-30T07:05:23.606Z,4.73
2023-04-30T07:07:52.429Z,5.93
2023-04-30T07:10:22.264Z,5.70
2023-04-30T07:12:50.741Z,6.43
2023-04-30T07:15:19.394Z,4.90
2023-04-30T07:17:47.869Z,4.00
2023-04-30T07:20:16.557Z,4.13
2023-04-30T07:22:46.170Z,4.70
2023-04-30T07:25:14.655Z,4.13
2023-04-30T07:27:45.006Z,2.50
2023-04-30T07:30:13.995Z,5.03
2023-04-30T07:32:42.764Z,6.90
2023-04-30T07:35:11.738Z,5.13
2023-04-30T07:37:41.233Z,5.17
2023-04-30T07:40:17.154Z,3.40
2023-04-30T07:42:52.033Z,2.90
2023-04-30T07:45:20.515Z,3.43
2023-04-30T07:47:48.917Z,3.03
2023-04-30T07:50:17.472Z,5.13
2023-04-30T07:52:46.036Z,3.37
2023-04-30T07:55:14.967Z,2.77
2023-04-30T07:57:43.405Z,2.07
2023-04-30T08:00:14.762Z,3.60
2023-04-30T08:02:44.192Z,3.37
2023-04-30T08:05:12.868Z,2.90
2023-04-30T08:07:41.454Z,2.73
2023-04-30T08:10:10.225Z,3.77
2023-04-30T08:12:38.600Z,3.73
2023-04-30T08:15:08.644Z,4.13
2023-04-30T08:17:38.741Z,3.17
2023-04-30T08:20:11.022Z,3.70
2023-04-30T08:22:39.718Z,3.07
2023-04-30T08:25:12.475Z,2.13
2023-04-30T08:27:42.252Z,3.03
2023-04-30T08:30:10.824Z,4.07
2023-04-30T08:32:40.728Z,3.63
2023-04-30T08:35:09.676Z,2.63
2023-04-30T08:37:38.099Z,2.77
2023-04-30T08:40:09.650Z,3.27
2023-04-30T08:42:38.942Z,2.87
2023-04-30T08:45:10.750Z,4.87
2023-04-30T08:47:43.113Z,2.90
2023-04-30T08:50:11.673Z,2.90
2023-04-30T08:52:40.834Z,2.37
2023-04-30T08:55:11.728Z,1.97
2023-04-30T08:57:40.093Z,4.97
2023-04-30T09:00:09.719Z,3.63
2023-04-30T09:02:42.361Z,3.30
2023-04-30T09:05:12.433Z,3.87
2023-04-30T09:07:46.166Z,2.43
2023-04-30T09:10:24.776Z,2.53
2023-04-30T09:13:02.573Z,2.67
2023-04-30T09:15:31.213Z,1.70
2023-04-30T09:18:11.217Z,3.10
2023-04-30T09:20:40.073Z,2.80
2023-04-30T09:23:09.421Z,2.90
2023-04-30T09:25:41.688Z,1.73
2023-04-30T09:28:11.413Z,2.63
2023-04-30T09:30:39.996Z,2.80
2023-04-30T09:33:11.336Z,1.97
2023-04-30T09:35:42.692Z,2.37
2023-04-30T09:38:27.244Z,1.90
2023-04-30T09:40:55.776Z,1.97
2023-04-30T09:43:24.222Z,2.03
2023-04-30T09:45:54.008Z,2.77
2023-04-30T09:48:23.338Z,1.87
2023-04-30T09:50:53.623Z,3.37
2023-04-30T09:53:23.358Z,2.33
2023-04-30T09:55:52.785Z,2.73
2023-04-30T09:58:21.447Z,2.80
2023-04-30T10:00:52.538Z,3.00
2023-04-30T10:03:22.336Z,3.30
2023-04-30T10:05:50.896Z,3.80
2023-04-30T10:08:24.086Z,3.20
2023-04-30T10:10:55.433Z,1.57
2023-04-30T10:13:23.954Z,2.97
2023-04-30T10:15:54.291Z,2.73
2023-04-30T10:18:25.552Z,2.00
2023-04-30T10:20:55.716Z,1.13
2023-04-30T10:23:26.032Z,1.37
2023-04-30T10:25:55.486Z,1.10
2023-04-30T10:28:25.125Z,3.37
2023-04-30T10:30:53.752Z,1.60
2023-04-30T10:33:25.222Z,3.57
2023-04-30T10:35:58.246Z,2.40
2023-04-30T10:38:30.568Z,1.77
2023-04-30T10:40:59.508Z,1.30
2023-04-30T10:43:28.349Z,2.70
2023-04-30T10:46:00.748Z,1.83
2023-04-30T10:48:31.185Z,2.07
2023-04-30T10:51:00.165Z,2.80
2023-04-30T10:53:32.440Z,2.40
2023-04-30T10:56:06.495Z,3.27
2023-04-30T10:58:36.044Z,1.27
2023-04-30T11:01:06.290Z,3.10
2023-04-30T11:03:36.133Z,2.43
2023-04-30T11:06:10.142Z,1.20
2023-04-30T11:08:40.896Z,2.30
2023-04-30T11:11:10.911Z,2.70
2023-04-30T11:13:43.235Z,4.33
2023-04-30T11:16:11.895Z,0.90
2023-04-30T11:18:44.166Z,1.47
2023-04-30T11:21:12.739Z,2.93
2023-04-30T11:23:44.421Z,2.27
2023-04-30T11:26:13.085Z,2.07
2023-04-30T11:28:52.240Z,2.43
2023-04-30T11:31:21.063Z,1.77
2023-04-30T11:33:49.577Z,2.40
2023-04-30T11:36:18.186Z,2.83
2023-04-30T11:38:48.086Z,1.93
2023-04-30T11:41:16.776Z,0.80
2023-04-30T11:43:45.337Z,2.93
2023-04-30T11:46:14.363Z,1.83
2023-04-30T11:48:43.848Z,2.30
2023-04-30T11:51:18.814Z,1.17
2023-04-30T11:53:49.756Z,0.80
2023-04-30T11:56:21.554Z,1.10
2023-04-30T11:58:50.145Z,2.03
2023-04-30T12:01:18.830Z,2.33
2023-04-30T12:03:48.110Z,0.90
2023-04-30T12:06:23.279Z,1.20
2023-04-30T12:08:54.009Z,1.90
2023-04-30T12:11:25.446Z,1.37
2023-04-30T12:13:54.748Z,2.07
2023-04-30T12:16:23.271Z,1.07
2023-04-30T12:18:52.918Z,1.20
2023-04-30T12:21:24.533Z,1.70
2023-04-30T12:23:54.409Z,0.50
2023-04-30T12:26:22.718Z,0.87
2023-04-30T12:28:51.268Z,1.67
2023-04-30T12:31:19.979Z,1.10
2023-04-30T12:33:56.415Z,1.67
2023-04-30T12:36:24.861Z,1.33
2023-04-30T12:39:03.124Z,1.47
2023-04-30T12:41:31.611Z,2.00
2023-04-30T12:44:14.830Z,1.13
2023-04-30T12:46:46.959Z,2.30
2023-04-30T12:49:24.994Z,2.00
2023-04-30T12:51:53.731Z,1.00
2023-04-30T12:54:30.758Z,0.80
2023-04-30T12:57:03.359Z,1.77
2023-04-30T12:59:31.949Z,1.93
2023-04-30T13:02:08.207Z,0.40
2023-04-30T13:04:37.373Z,1.20
2023-04-30T13:07:06.156Z,1.90
2023-04-30T13:09:36.901Z,1.70
2023-04-30T13:12:06.528Z,1.27
2023-04-30T13:14:35.006Z,0.50
2023-04-30T13:17:05.789Z,0.70
2023-04-30T13:19:34.708Z,0.50
2023-04-30T13:22:03.287Z,1.73
2023-04-30T13:24:31.728Z,1.27
2023-04-30T13:27:02.759Z,0.90
2023-04-30T13:29:31.945Z,1.30
2023-04-30T13:32:00.412Z,1.63
2023-04-30T13:34:28.797Z,1.03
2023-04-30T13:36:57.189Z,1.60
2023-04-30T13:39:25.724Z,2.30
2023-04-30T13:41:54.132Z,1.63
2023-04-30T13:44:23.887Z,2.23
2023-04-30T13:46:52.373Z,1.87
2023-04-30T13:49:20.857Z,1.20
2023-04-30T13:51:49.278Z,1.37
2023-04-30T13:54:17.625Z,1.47
2023-04-30T13:56:45.971Z,1.53
2023-04-30T13:59:14.454Z,0.80
2023-04-30T14:01:44.467Z,1.50
2023-04-30T14:04:14.054Z,1.57
2023-04-30T14:06:42.852Z,0.60
2023-04-30T14:09:11.868Z,1.50
2023-04-30T14:11:40.269Z,1.30
2023-04-30T14:14:09.831Z,0.93
2023-04-30T14:16:38.525Z,0.87
2023-04-30T14:19:08.311Z,0.63
2023-04-30T14:21:36.695Z,0.90
2023-04-30T14:24:05.113Z,2.30
2023-04-30T14:26:33.515Z,0.83
2023-04-30T14:29:02.048Z,0.97
2023-04-30T14:31:30.528Z,0.70
2023-04-30T14:33:58.924Z,2.37
2023-04-30T14:36:28.677Z,1.33
2023-04-30T14:38:57.080Z,1.07
2023-04-30T14:41:25.782Z,1.97
2023-04-30T14:43:54.236Z,1.47
2023-04-30T14:46:22.742Z,1.70
2023-04-30T14:48:51.196Z,2.50
2023-04-30T14:51:19.688Z,0.83
2023-04-30T14:53:49.379Z,1.13
2023-04-30T14:56:17.905Z,1.23
2023-04-30T14:58:46.263Z,0.73
2023-04-30T15:01:15.626Z,1.40
2023-04-30T15:03:44.159Z,0.90
2023-04-30T15:06:12.878Z,0.90
2023-04-30T15:08:41.559Z,1.70
2023-04-30T15:11:13.240Z,1.43
2023-04-30T15:13:41.671Z,1.53
2023-04-30T15:16:10.252Z,1.50
2023-04-30T15:18:38.833Z,1.67
2023-04-30T15:21:07.329Z,1.87
2023-04-30T15:23:35.830Z,1.83
2023-04-30T15:26:04.688Z,1.50
2023-04-30T15:28:34.547Z,1.47
2023-04-30T15:31:03.213Z,1.47
2023-04-30T15:33:31.833Z,1.30
2023-04-30T15:36:00.568Z,1.50
2023-04-30T15:38:29.590Z,1.50
2023-04-30T15:40:57.953Z,1.60
2023-04-30T15:43:26.387Z,1.20
2023-04-30T15:45:56.152Z,1.50
2023-04-30T15:48:25.651Z,0.90
2023-04-30T15:50:54.070Z,1.27
2023-04-30T15:53:22.427Z,0.60
2023-04-30T15:55:50.903Z,1.63
2023-04-30T15:58:19.259Z,1.67
2023-04-30T16:00:47.710Z,1.50
2023-04-30T16:03:17.488Z,1.43
2023-04-30T16:05:46.027Z,1.70
2023-04-30T16:08:15.066Z,1.90
2023-04-30T16:10:43.482Z,1.30
2023-04-30T16:13:11.856Z,1.30
2023-04-30T16:15:40.445Z,1.50
2023-04-30T16:18:09.954Z,1.60
2023-04-30T16:20:40.583Z,1.53
2023-04-30T16:23:08.938Z,1.70
2023-04-30T16:25:37.343Z,2.17
2023-04-30T16:28:05.787Z,1.20
2023-04-30T16:30:35.828Z,0.87
2023-04-30T16:33:04.241Z,2.33
2023-04-30T16:35:32.736Z,2.00
2023-04-30T16:38:02.596Z,1.20
2023-04-30T16:40:31.034Z,2.80
2023-04-30T16:43:00.637Z,1.70
2023-04-30T16:45:30.341Z,1.70
2023-04-30T16:47:59.217Z,1.67
2023-04-30T16:50:27.836Z,2.20
2023-04-30T16:52:56.167Z,1.40
2023-04-30T16:55:27.493Z,1.60
2023-04-30T16:57:56.370Z,0.80
2023-04-30T17:00:24.760Z,0.50
2023-04-30T17:02:53.911Z,0.87
2023-04-30T17:05:22.392Z,1.30
2023-04-30T17:07:50.827Z,1.87
2023-04-30T17:10:19.598Z,1.33
2023-04-30T17:12:49.636Z,2.13
2023-04-30T17:15:18.949Z,1.00
2023-04-30T17:17:47.567Z,1.50
2023-04-30T17:20:16.025Z,4.00
2023-04-30T17:22:44.632Z,1.47
2023-04-30T17:25:13.298Z,1.27
2023-04-30T17:27:41.684Z,1.30
2023-04-30T17:30:11.762Z,1.80
2023-04-30T17:32:40.161Z,1.43
2023-04-30T17:35:08.864Z,1.33
2023-04-30T17:37:37.253Z,2.63
2023-04-30T17:40:06.590Z,1.10
2023-04-30T17:42:35.179Z,1.30
2023-04-30T17:45:03.733Z,1.13
2023-04-30T17:47:33.460Z,1.27
2023-04-30T17:50:04.842Z,1.47
2023-04-30T17:52:35.588Z,0.70
2023-04-30T17:55:03.933Z,1.00
2023-04-30T17:57:32.385Z,1.57
2023-04-30T18:00:00.717Z,1.77
2023-04-30T18:02:29.302Z,0.83
2023-04-30T18:04:59.092Z,1.43
2023-04-30T18:07:27.495Z,1.20
2023-04-30T18:09:56.965Z,1.03
2023-04-30T18:12:25.919Z,0.90
2023-04-30T18:14:54.622Z,1.00
2023-04-30T18:17:23.062Z,1.20
2023-04-30T18:19:51.424Z,1.27
2023-04-30T18:22:21.152Z,0.60
2023-04-30T18:24:49.471Z,1.30
2023-04-30T18:27:17.819Z,1.60
2023-04-30T18:29:46.661Z,1.10
2023-04-30T18:32:15.961Z,1.57
2023-04-30T18:34:44.723Z,1.00
2023-04-30T18:37:13.573Z,1.47
2023-04-30T18:39:43.419Z,1.13
2023-04-30T18:42:12.300Z,1.30
2023-04-30T18:44:40.799Z,1.30
2023-04-30T18:47:09.182Z,2.67
2023-04-30T18:49:38.749Z,1.27
2023-04-30T18:52:07.327Z,0.40
2023-04-30T18:54:36.252Z,1.23
2023-04-30T18:57:06.224Z,1.13
2023-04-30T18:59:34.740Z,1.50
2023-04-30T19:02:03.181Z,0.60
2023-04-30T19:04:31.576Z,1.27
2023-04-30T19:07:00.056Z,0.77
2023-04-30T19:09:28.413Z,0.87
2023-04-30T19:11:57.321Z,0.63
2023-04-30T19:14:27.135Z,0.83
2023-04-30T19:16:55.619Z,1.03
2023-04-30T19:19:24.080Z,0.90
2023-04-30T19:21:52.484Z,1.97
2023-04-30T19:24:21.225Z,1.33
2023-04-30T19:26:50.824Z,0.67
2023-04-30T19:29:19.228Z,0.90
2023-04-30T19:31:49.045Z,1.33
2023-04-30T19:34:17.539Z,1.07
2023-04-30T19:36:45.941Z,0.60
2023-04-30T19:39:15.650Z,1.53
2023-04-30T19:41:44.029Z,0.93
2023-04-30T19:44:12.435Z,1.23
2023-04-30T19:46:42.340Z,0.77
2023-04-30T19:49:12.437Z,1.33
2023-04-30T19:51:41.025Z,1.10
2023-04-30T19:54:14.051Z,1.00
2023-04-30T19:56:42.647Z,0.60
2023-04-30T19:59:11.301Z,1.37
2023-04-30T20:01:39.757Z,0.63
2023-04-30T20:04:08.329Z,0.87
2023-04-30T20:06:38.710Z,0.60
2023-04-30T20:09:07.844Z,0.83
2023-04-30T20:11:36.220Z,0.80
2023-04-30T20:14:04.618Z,1.23
2023-04-30T20:16:33.021Z,1.80
2023-04-30T20:19:01.496Z,0.77
2023-04-30T20:21:30.372Z,0.60
2023-04-30T20:24:00.262Z,0.83
2023-04-30T20:26:28.677Z,0.80
2023-04-30T20:28:57.189Z,0.60
2023-04-30T20:31:25.681Z,0.60
2023-04-30T20:33:54.011Z,0.80
2023-04-30T20:36:22.410Z,1.13
2023-04-30T20:38:53.270Z,0.90
2023-04-30T20:41:22.962Z,0.97
2023-04-30T20:43:52.057Z,0.80
2023-04-30T20:46:20.492Z,0.73
2023-04-30T20:48:49.449Z,1.43
2023-04-30T20:51:18.484Z,0.90
2023-04-30T20:53:47.005Z,0.60
2023-04-30T20:56:15.350Z,0.90
2023-04-30T20:58:45.176Z,2.80
2023-04-30T21:01:13.707Z,0.77
2023-04-30T21:04:17.515Z,1.83
2023-04-30T21:06:45.913Z,1.10
2023-04-30T21:09:14.634Z,0.80
2023-04-30T21:11:43.312Z,0.60
2023-04-30T21:14:11.706Z,1.17
2023-04-30T21:16:40.706Z,1.07
2023-04-30T21:19:09.465Z,0.80
2023-04-30T21:21:39.177Z,0.70
2023-04-30T21:24:08.950Z,1.10
2023-04-30T21:26:37.328Z,0.63
2023-04-30T21:29:05.739Z,1.43
2023-04-30T21:31:34.318Z,1.00
2023-04-30T21:34:02.761Z,1.17
2023-04-30T21:36:31.518Z,1.50
2023-04-30T21:39:01.262Z,1.33
2023-04-30T21:41:30.401Z,3.73
2023-04-30T21:43:58.779Z,5.83
2023-04-30T21:46:27.354Z,1.13
2023-04-30T21:48:55.728Z,0.60
2023-04-30T21:51:24.143Z,0.80
2023-04-30T21:53:52.515Z,0.67
2023-04-30T21:56:22.203Z,0.70
2023-04-30T21:58:50.605Z,1.07
2023-04-30T22:01:19.794Z,0.77
2023-04-30T22:03:48.592Z,0.60
2023-04-30T22:06:17.030Z,0.70
2023-04-30T22:08:45.406Z,0.73
2023-04-30T22:11:13.895Z,0.50
2023-04-30T22:13:43.682Z,0.90
2023-04-30T22:16:12.323Z,0.70
2023-04-30T22:18:40.820Z,0.73
2023-04-30T22:21:09.207Z,1.03
2023-04-30T22:23:37.601Z,2.03
2023-04-30T22:26:09.738Z,0.70
2023-04-30T22:28:38.324Z,0.60
2023-04-30T22:31:08.521Z,0.90
2023-04-30T22:33:37.718Z,0.60
2023-04-30T22:36:06.696Z,0.57
2023-04-30T22:38:35.418Z,0.60
2023-04-30T22:41:04.750Z,0.93
2023-04-30T22:43:33.484Z,0.90
2023-04-30T22:46:02.636Z,0.60
2023-04-30T22:48:32.595Z,0.87
2023-04-30T22:51:01.018Z,0.87
2023-04-30T22:53:30.050Z,1.17
2023-04-30T22:55:58.486Z,0.60
2023-04-30T22:58:26.877Z,1.60
2023-04-30T23:00:55.372Z,0.97
2023-04-30T23:03:23.769Z,0.70
2023-04-30T23:05:53.785Z,0.60
2023-04-30T23:08:22.180Z,0.60
2023-04-30T23:10:50.637Z,0.70
2023-04-30T23:13:19.405Z,0.60
2023-04-30T23:15:48.058Z,1.93
2023-04-30T23:18:17.495Z,0.60
2023-04-30T23:20:45.953Z,0.50
2023-04-30T23:23:15.709Z,0.63
2023-04-30T23:25:44.097Z,0.93
2023-04-30T23:28:12.799Z,1.10
2023-04-30T23:30:41.158Z,0.80
2023-04-30T23:33:09.562Z,0.60
2023-04-30T23:35:37.901Z,0.80
2023-04-30T23:38:06.321Z,0.60
2023-04-30T23:40:38.229Z,2.63
2023-04-30T23:43:06.825Z,2.00
2023-04-30T23:45:35.294Z,0.70
2023-04-30T23:48:03.697Z,1.13
2023-04-30T23:50:32.386Z,1.00
2023-04-30T23:53:00.810Z,1.00
2023-04-30T23:55:29.200Z,0.70
2023-04-30T23:57:59.033Z,1.07
